Hauptseite
METAR-TAF:

METAR-TAF

Flughäfen :

Flughafen Sunan

Pjöngjang, Nordkorea

Breite: 39-02N, Länge: 125-47E, Höhe: 36 m

METAR: fehlend

Zeit: 03:20 (18:50 UTC)

Prognose

Neuester Wetterbericht von vor 14 Stunden und 33 Minuten, um 04:17 UTC
Gültige Prognose vom 16 um 06 UTC bis 17 um 06 UTC
Wind 8 kt aus Nord
Sichtweite 10 km oder mehr
keine Wolken unter 1500 m und keine Kumulonimbus oder Gewitterwolken

TAF: ZKPY 160417Z 1606/1706 35004MPS CAVOK TX09/1606Z TNM04/1622Z

Wetterbeobachtungen und Prognosen von mehr als 4000 Flughäfen (METAR und TAF Bericht).

Die verfügbaren Stationen werden durch gelbe und rote Markierungen auf der Karte dargestellt.

Führen Sie die Maus auf sie, um den Namen der Station zu sehen.

Darauf klicken, um die Beobachtung von Wetterbeobachtungen und Prognosen zu sehen.

Um die Karte zu ändern : klicken Sie auf den grünen Tasten mit einem schwarzen Kreuz Zum Vergrößern, auf den grünen Button mit einem Gedankenstrich zu verkleinern, oder auf die grünen Pfeile für benachbarte Karten.


METAR-TAF: